Time;durP1;ratioP1;P1;durP2;ratioP2;P2;SDS_P1;SDS_P2;PMS_P1;PMS_P2;Temp;Humidity;BMP_temperature;BMP_pressure;BME280_temperature;BME280_humidity;BME280_pressure;Samples;Min_cycle;Max_cycle;Signal;HPM_P1;HPM_P2
2022/06/11 00:01:33;;;;;;;30.42;15.70;;;;;;;16.50;100.00;94404.16;5102027;27;20043;-69
2022/06/11 00:04:04;;;;;;;25.40;14.82;;;;;;;16.50;100.00;94404.16;5084762;27;20036;-69
2022/06/11 00:06:34;;;;;;;29.13;14.82;;;;;;;16.53;100.00;94400.97;5099011;27;20038;-69
2022/06/11 00:09:03;;;;;;;30.40;15.77;;;;;;;16.52;100.00;94399.41;5106020;27;20035;-69
2022/06/11 00:11:30;;;;;;;26.25;14.88;;;;;;;16.54;100.00;94402.53;5085132;27;20625;-69
2022/06/11 00:13:57;;;;;;;26.25;14.48;;;;;;;16.53;100.00;94400.16;5109438;27;20080;-69
2022/06/11 00:16:25;;;;;;;26.70;14.60;;;;;;;16.49;100.00;94397.31;5099501;27;20044;-70
2022/06/11 00:19:00;;;;;;;27.55;16.05;;;;;;;16.51;100.00;94400.47;5101821;27;20724;-69
2022/06/11 00:21:35;;;;;;;25.95;13.48;;;;;;;16.55;100.00;94404.09;5105313;27;20051;-69
2022/06/11 00:24:03;;;;;;;24.40;13.57;;;;;;;16.55;100.00;94403.34;5102547;27;20039;-69
2022/06/11 00:26:30;;;;;;;21.80;14.40;;;;;;;16.52;100.00;94402.03;5098957;27;20054;-69
2022/06/11 00:28:57;;;;;;;21.17;12.18;;;;;;;16.52;100.00;94407.28;5101421;27;21340;-69
2022/06/11 00:31:24;;;;;;;20.58;12.23;;;;;;;16.45;100.00;94409.47;5101281;27;20044;-68
2022/06/11 00:33:51;;;;;;;19.17;12.27;;;;;;;16.47;100.00;94396.81;5079967;27;20078;-69
2022/06/11 00:36:20;;;;;;;22.27;12.27;;;;;;;16.42;100.00;94399.50;5081431;27;20047;-69
2022/06/11 00:38:48;;;;;;;19.48;11.98;;;;;;;16.52;100.00;94409.91;5086248;28;20047;-69
2022/06/11 00:41:19;;;;;;;16.35;10.43;;;;;;;16.44;100.00;94398.16;5099051;27;20112;-69
2022/06/11 00:43:45;;;;;;;18.55;11.75;;;;;;;16.39;100.00;94397.44;5099870;27;20040;-69
2022/06/11 00:46:34;;;;;;;20.10;12.13;;;;;;;16.48;100.00;94403.66;5102505;27;20059;-68
2022/06/11 00:49:11;;;;;;;18.25;11.43;;;;;;;16.44;100.00;94392.13;5098062;27;20049;-69
2022/06/11 00:51:39;;;;;;;19.13;11.75;;;;;;;16.51;100.00;94403.09;5101899;27;20051;-69
2022/06/11 00:54:14;;;;;;;18.27;11.68;;;;;;;16.50;100.00;94400.75;5099551;27;20463;-68
2022/06/11 00:56:46;;;;;;;19.00;12.23;;;;;;;16.50;100.00;94396.28;5085169;28;20421;-69
2022/06/11 00:59:25;;;;;;;22.20;11.68;;;;;;;16.55;100.00;94398.84;5096520;27;20117;-68
2022/06/11 01:01:52;;;;;;;17.83;11.85;;;;;;;16.45;100.00;94377.91;5102451;27;20043;-69
2022/06/11 01:04:53;;;;;;;14.65;10.45;;;;;;;16.59;100.00;94407.75;5100362;27;20050;-69
2022/06/11 01:07:26;;;;;;;15.05;11.00;;;;;;;16.58;100.00;94403.56;5041324;28;20528;-69
2022/06/11 01:10:25;;;;;;;16.63;10.00;;;;;;;16.56;100.00;94400.41;5097834;27;20039;-68
2022/06/11 01:13:16;;;;;;;19.27;12.20;;;;;;;16.50;100.00;94398.91;5102148;27;20044;-69
2022/06/11 01:15:55;;;;;;;17.27;10.48;;;;;;;16.51;100.00;94395.22;5078470;28;20048;-68
2022/06/11 01:18:32;;;;;;;16.67;11.20;;;;;;;16.51;100.00;94397.03;5106638;27;20046;-68
2022/06/11 01:21:33;;;;;;;18.73;10.93;;;;;;;16.53;100.00;94395.72;5099628;27;20054;-69
2022/06/11 01:24:18;;;;;;;18.55;10.85;;;;;;;16.53;100.00;94395.72;5082693;28;20047;-68
2022/06/11 01:27:04;;;;;;;17.38;10.60;;;;;;;16.51;100.00;94391.78;5098235;27;20850;-68
2022/06/11 01:29:56;;;;;;;18.10;11.02;;;;;;;16.47;100.00;94391.56;5105198;27;20129;-68
2022/06/11 01:32:46;;;;;;;16.27;10.63;;;;;;;16.43;100.00;94385.31;5098072;27;20287;-69
2022/06/11 01:35:29;;;;;;;15.95;10.95;;;;;;;16.42;100.00;94394.22;5099736;27;20032;-69
2022/06/11 01:38:06;;;;;;;15.10;10.30;;;;;;;16.41;100.00;94392.69;5102187;27;20031;-69
2022/06/11 01:40:54;;;;;;;19.75;10.13;;;;;;;16.40;100.00;94385.84;5100434;27;20051;-69
2022/06/11 01:43:33;;;;;;;17.95;10.40;;;;;;;16.38;100.00;94393.22;5098460;27;20039;-68
2022/06/11 01:46:03;;;;;;;19.02;11.45;;;;;;;16.40;100.00;94385.84;5098539;27;20076;-68
2022/06/11 01:48:32;;;;;;;19.98;10.65;;;;;;;16.40;100.00;94396.34;5099879;28;20075;-68
2022/06/11 01:51:29;;;;;;;18.50;11.38;;;;;;;16.38;100.00;94385.34;5098871;28;20066;-68
2022/06/11 01:54:11;;;;;;;17.33;11.23;;;;;;;16.43;100.00;94393.19;5098337;28;20436;-69
2022/06/11 01:56:45;;;;;;;15.90;10.45;;;;;;;16.45;100.00;94391.06;5094339;28;20812;-69
2022/06/11 01:59:30;;;;;;;14.57;9.73;;;;;;;16.45;100.00;94393.69;5099892;28;20043;-69
2022/06/11 02:02:09;;;;;;;16.05;9.85;;;;;;;16.48;100.00;94392.38;5093705;28;20755;-68
2022/06/11 02:04:55;;;;;;;15.75;10.50;;;;;;;16.49;100.00;94394.69;5094065;28;20157;-68
2022/06/11 02:07:31;;;;;;;19.25;10.27;;;;;;;16.47;100.00;94383.69;5077713;28;20052;-68
2022/06/11 02:10:10;;;;;;;16.73;10.68;;;;;;;16.51;100.00;94389.97;5096938;28;20048;-68
2022/06/11 02:12:44;;;;;;;14.30;9.65;;;;;;;16.43;100.00;94390.56;5097582;28;20043;-68
2022/06/11 02:15:29;;;;;;;14.73;10.43;;;;;;;16.43;100.00;94390.56;5079269;28;20040;-69
2022/06/11 02:18:09;;;;;;;14.23;9.70;;;;;;;16.44;100.00;94384.25;5096993;28;20044;-68
2022/06/11 02:20:43;;;;;;;14.07;9.55;;;;;;;16.44;100.00;94392.13;5095379;28;20047;-68
2022/06/11 02:23:13;;;;;;;12.68;9.25;;;;;;;16.40;100.00;94391.09;5101437;28;20051;-68
2022/06/11 02:26:03;;;;;;;16.40;9.77;;;;;;;16.39;100.00;94398.22;5098862;28;20035;-68
2022/06/11 02:28:37;;;;;;;17.85;9.90;;;;;;;16.37;100.00;94399.56;5095682;28;20063;-69
2022/06/11 02:31:07;;;;;;;16.07;10.73;;;;;;;16.29;100.00;94400.94;5077850;28;20188;-69
2022/06/11 02:33:36;;;;;;;17.13;11.18;;;;;;;16.24;100.00;94398.34;5098922;28;20587;-69
2022/06/11 02:36:27;;;;;;;19.30;11.10;;;;;;;16.17;100.00;94403.94;5102389;28;20043;-68
2022/06/11 02:38:56;;;;;;;19.42;11.45;;;;;;;16.10;100.00;94398.22;5105972;28;20051;-68
2022/06/11 02:41:27;;;;;;;15.25;10.27;;;;;;;16.07;100.00;94393.50;5099083;28;20074;-68
2022/06/11 02:43:54;;;;;;;20.55;11.68;;;;;;;15.98;100.00;94389.91;5104056;27;20047;-69
2022/06/11 02:46:41;;;;;;;18.35;10.93;;;;;;;16.00;100.00;94393.03;5098114;27;20628;-68
2022/06/11 02:49:15;;;;;;;22.52;11.80;;;;;;;16.03;100.00;94392.50;5103583;27;20123;-67
2022/06/11 02:51:44;;;;;;;19.50;11.57;;;;;;;16.05;100.00;94385.13;5097571;27;20039;-69
2022/06/11 02:54:10;;;;;;;21.75;12.57;;;;;;;15.90;100.00;94388.66;5100062;27;20040;-69
2022/06/11 02:56:38;;;;;;;27.33;12.93;;;;;;;15.94;100.00;94383.66;5097119;27;20035;-69
2022/06/11 02:59:05;;;;;;;21.10;12.63;;;;;;;15.97;100.00;94398.84;5106692;27;20058;-70
2022/06/11 03:01:34;;;;;;;22.83;13.50;;;;;;;15.92;100.00;94385.75;5106944;27;20058;-70
2022/06/11 03:04:01;;;;;;;23.73;13.35;;;;;;;16.01;100.00;94394.63;5110109;27;20035;-67
2022/06/11 03:06:29;;;;;;;22.15;13.38;;;;;;;15.97;100.00;94388.31;5101379;27;20046;-69
2022/06/11 03:08:58;;;;;;;23.35;12.85;;;;;;;16.02;100.00;94401.41;5086119;27;20043;-69
2022/06/11 03:11:27;;;;;;;21.13;13.05;;;;;;;16.03;100.00;94397.75;5103392;27;20274;-69
2022/06/11 03:13:54;;;;;;;25.30;13.55;;;;;;;16.02;100.00;94404.06;5103668;27;20039;-69
2022/06/11 03:16:21;;;;;;;21.48;12.65;;;;;;;15.90;100.00;94385.22;5084020;28;20062;-69
2022/06/11 03:18:48;;;;;;;23.02;12.90;;;;;;;16.05;100.00;94412.16;5101189;27;20051;-69
2022/06/11 03:21:15;;;;;;;20.92;12.38;;;;;;;16.00;100.00;94404.31;5105953;27;20096;-69
2022/06/11 03:23:43;;;;;;;25.23;12.30;;;;;;;16.01;100.00;94415.63;5103410;27;20031;-68
2022/06/11 03:26:10;;;;;;;18.52;11.55;;;;;;;16.02;100.00;94423.22;5108007;27;20043;-69
2022/06/11 03:28:37;;;;;;;25.00;12.85;;;;;;;15.97;100.00;94432.97;5102335;27;20040;-69
2022/06/11 03:31:06;;;;;;;22.08;12.48;;;;;;;15.98;100.00;94421.44;5105335;27;20048;-68
2022/06/11 03:33:35;;;;;;;21.92;12.07;;;;;;;16.03;100.00;94424.00;5083320;27;20154;-68
2022/06/11 03:36:05;;;;;;;24.83;12.35;;;;;;;16.08;100.00;94421.34;5090210;28;20051;-69
2022/06/11 03:38:33;;;;;;;21.75;13.07;;;;;;;16.10;100.00;94418.44;5100626;27;20038;-68
2022/06/11 03:41:01;;;;;;;21.40;11.80;;;;;;;16.13;100.00;94413.41;5105766;27;20040;-69
2022/06/11 03:43:28;;;;;;;20.42;11.63;;;;;;;16.01;100.00;94415.63;5103830;27;20043;-68
2022/06/11 03:45:55;;;;;;;24.55;12.75;;;;;;;16.09;100.00;94427.38;5085837;27;20054;-68
2022/06/11 03:48:22;;;;;;;24.20;11.93;;;;;;;16.14;100.00;94420.25;5101321;27;20047;-68
2022/06/11 03:50:49;;;;;;;22.33;12.52;;;;;;;16.20;100.00;94415.72;5081671;28;20051;-69
2022/06/11 03:53:16;;;;;;;18.73;11.73;;;;;;;16.20;100.00;94413.88;5105612;27;20123;-68
2022/06/11 03:55:44;;;;;;;21.92;11.75;;;;;;;16.24;100.00;94414.91;5095791;27;20126;-68
2022/06/11 03:58:13;;;;;;;21.83;12.10;;;;;;;16.28;100.00;94422.22;5100544;27;20050;-69
2022/06/11 04:11:53;;;;;;;16.17;9.55;;;;;;;15.84;100.00;94432.53;5103322;27;20127;-68
2022/06/11 04:14:20;;;;;;;16.50;10.27;;;;;;;15.93;100.00;94429.34;5100260;27;20031;-68
2022/06/11 04:16:50;;;;;;;17.48;10.15;;;;;;;15.98;100.00;94431.94;5110053;27;20716;-69
2022/06/11 04:19:25;;;;;;;15.90;9.63;;;;;;;16.01;100.00;94426.13;5113383;27;20066;-69
2022/06/11 04:30:27;;;;;;;17.40;9.98;;;;;;;15.97;100.00;94440.84;5069623;27;20148;-69
2022/06/11 04:32:54;;;;;;;19.02;10.52;;;;;;;16.01;100.00;94442.66;5025785;28;20049;-68
2022/06/11 04:35:21;;;;;;;18.70;11.00;;;;;;;16.05;100.00;94442.91;5050605;28;20976;-68
2022/06/11 04:37:47;;;;;;;19.85;11.43;;;;;;;16.14;100.00;94441.25;5059630;28;20048;-69
2022/06/11 04:40:17;;;;;;;15.95;10.43;;;;;;;16.22;100.00;94438.06;5070715;28;20063;-69
2022/06/11 04:42:50;;;;;;;22.55;13.55;;;;;;;16.17;100.00;94419.69;5066539;28;20040;-85
2022/06/11 04:45:18;;;;;;;21.70;11.50;;;;;;;16.38;100.00;94446.56;5049697;28;20117;-66
2022/06/11 04:47:45;;;;;;;17.48;10.55;;;;;;;16.34;100.00;94435.03;5072481;28;20036;-72
2022/06/11 04:50:16;;;;;;;18.75;11.05;;;;;;;16.50;100.00;94448.06;5069630;28;20041;-67
2022/06/11 04:52:42;;;;;;;18.42;10.13;;;;;;;16.51;100.00;94450.41;5060827;28;20044;-67
2022/06/11 04:55:09;;;;;;;13.68;8.65;;;;;;;16.53;100.00;94452.75;5059096;28;20041;-67
2022/06/11 04:57:36;;;;;;;12.30;7.55;;;;;;;16.54;100.00;94455.09;5063896;28;20037;-67
2022/06/11 05:00:06;;;;;;;8.50;5.85;;;;;;;16.56;100.00;94458.22;5060798;28;20523;-67
2022/06/11 05:02:32;;;;;;;13.50;8.68;;;;;;;16.56;100.00;94463.50;5051123;28;20040;-67
2022/06/11 05:05:01;;;;;;;12.38;6.93;;;;;;;16.61;100.00;94471.34;5061670;28;20102;-68
2022/06/11 05:07:28;;;;;;;8.85;6.43;;;;;;;16.67;100.00;94468.66;5059704;28;20041;-67
2022/06/11 05:09:54;;;;;;;11.02;6.88;;;;;;;16.71;100.00;94472.31;5063196;28;20398;-67
2022/06/11 05:12:21;;;;;;;8.23;5.63;;;;;;;16.79;100.00;94471.72;5059957;28;20102;-66
2022/06/11 05:14:48;;;;;;;10.95;6.07;;;;;;;16.83;100.00;94470.13;5060324;28;20047;-67
2022/06/11 05:17:15;;;;;;;7.53;5.63;;;;;;;16.93;100.00;94483.16;5046094;28;20434;-67
2022/06/11 05:19:42;;;;;;;7.22;5.22;;;;;;;17.03;100.00;94482.25;5057591;28;20044;-67
2022/06/11 05:22:09;;;;;;;7.95;5.88;;;;;;;17.14;100.00;94483.75;5066229;28;20047;-66
2022/06/11 05:24:35;;;;;;;11.80;6.35;;;;;;;17.24;100.00;94492.59;5060812;28;20037;-66
2022/06/11 05:27:12;;;;;;;8.95;5.63;;;;;;;17.30;100.00;94501.97;5044103;28;20055;-68
2022/06/11 05:29:49;;;;;;;9.52;6.93;;;;;;;17.42;100.00;94504.22;5066346;28;20054;-68
2022/06/11 05:32:16;;;;;;;6.93;4.70;;;;;;;17.54;100.00;94501.97;5070769;28;20087;-66
2022/06/11 05:34:44;;;;;;;7.65;4.95;;;;;;;17.62;100.00;94506.59;5067498;28;20049;-66
2022/06/11 05:37:12;;;;;;;4.30;3.15;;;;;;;17.69;100.00;94504.41;5064831;28;20037;-65
2022/06/11 05:39:40;;;;;;;7.30;5.63;;;;;;;17.79;100.00;94511.41;5060920;28;20428;-67
2022/06/11 05:42:07;;;;;;;6.53;4.75;;;;;;;17.85;100.00;94517.38;5046379;28;20813;-67
2022/06/11 05:44:34;;;;;;;8.82;5.18;;;;;;;17.83;100.00;94519.50;5047099;28;20583;-66
2022/06/11 05:47:02;;;;;;;8.23;5.07;;;;;;;17.91;100.00;94516.25;5047470;28;20040;-67
2022/06/11 05:49:33;;;;;;;6.95;4.90;;;;;;;17.98;100.00;94527.22;5048891;28;20045;-67
2022/06/11 05:52:05;;;;;;;8.68;5.15;;;;;;;18.06;100.00;94528.44;5048304;28;20044;-67
2022/06/11 05:54:35;;;;;;;7.28;5.80;;;;;;;18.06;100.00;94518.69;5048537;28;20052;-67
2022/06/11 05:57:05;;;;;;;7.78;6.15;;;;;;;18.06;100.00;94534.50;5051727;28;20048;-66
2022/06/11 05:59:35;;;;;;;6.65;3.90;;;;;;;18.15;100.00;94532.03;5048777;28;20039;-67
2022/06/11 06:02:05;;;;;;;8.98;3.92;;;;;;;18.15;100.00;94532.78;5050461;28;20971;-66
2022/06/11 06:04:32;;;;;;;6.53;4.43;;;;;;;18.19;100.00;94538.28;5047461;28;20435;-67
2022/06/11 06:06:59;;;;;;;5.45;4.35;;;;;;;18.26;100.00;94537.94;5049580;28;20043;-66
2022/06/11 06:09:25;;;;;;;7.25;4.55;;;;;;;18.34;100.00;94529.34;5049010;28;20041;-67
2022/06/11 06:11:52;;;;;;;6.20;4.75;;;;;;;18.22;100.00;94542.19;5033893;28;20616;-67
2022/06/11 06:14:19;;;;;;;7.13;4.80;;;;;;;18.09;100.00;94533.91;5047412;28;20122;-67
2022/06/11 06:16:46;;;;;;;6.50;4.93;;;;;;;18.03;100.00;94540.34;5051157;28;20040;-65
2022/06/11 06:26:30;;;;;;;7.45;4.95;;;;;;;17.68;100.00;94544.97;5070819;27;20134;-66
2022/06/11 06:28:57;;;;;;;6.88;4.80;;;;;;;17.58;100.00;94545.09;5070560;28;20055;-67
2022/06/11 06:31:29;;;;;;;7.07;5.70;;;;;;;17.62;100.00;94547.94;5075205;28;20048;-66
2022/06/11 06:34:01;;;;;;;7.22;5.00;;;;;;;17.74;100.00;94543.84;5073591;28;20132;-67
2022/06/11 06:36:30;;;;;;;8.38;5.30;;;;;;;17.85;100.00;94533.19;5073099;28;20037;-67
2022/06/11 06:38:57;;;;;;;8.50;5.50;;;;;;;18.07;100.00;94541.31;5073889;28;20432;-67
2022/06/11 06:41:24;;;;;;;7.30;5.20;;;;;;;18.23;100.00;94546.41;5072406;28;20624;-66
2022/06/11 06:43:51;;;;;;;6.68;5.40;;;;;;;18.38;100.00;94556.69;5075098;28;20885;-67
2022/06/11 06:46:19;;;;;;;9.40;6.47;;;;;;;18.47;100.00;94557.63;5071754;28;20040;-66
2022/06/11 06:48:46;;;;;;;6.47;5.07;;;;;;;18.62;100.00;94551.34;5076593;28;20032;-66
2022/06/11 06:51:14;;;;;;;6.78;4.60;;;;;;;18.77;100.00;94558.22;5070586;28;20051;-66
2022/06/11 06:53:42;;;;;;;9.20;5.55;;;;;;;18.89;100.00;94550.66;5074307;28;20051;-66
2022/06/11 06:56:10;;;;;;;8.63;5.80;;;;;;;19.05;100.00;94553.03;5070488;28;20048;-66
2022/06/11 06:58:39;;;;;;;7.93;5.70;;;;;;;19.21;100.00;94546.44;5074572;28;20032;-66
2022/06/11 07:01:07;;;;;;;7.90;5.32;;;;;;;19.34;100.00;94544.06;5072061;28;20051;-66
2022/06/11 07:03:34;;;;;;;6.65;4.88;;;;;;;19.49;100.00;94562.28;5072569;28;20572;-66
2022/06/11 07:06:03;;;;;;;7.47;4.60;;;;;;;19.49;100.00;94557.00;5068403;28;20028;-66
2022/06/11 07:08:30;;;;;;;5.93;4.57;;;;;;;19.62;100.00;94555.41;5072714;28;20045;-66
2022/06/11 07:10:56;;;;;;;7.63;4.70;;;;;;;19.70;100.00;94553.94;5073600;28;20041;-65
2022/06/11 07:13:23;;;;;;;8.95;5.25;;;;;;;19.77;100.00;94549.06;5072752;28;20043;-65
2022/06/11 07:15:54;;;;;;;6.28;4.60;;;;;;;19.84;100.00;94552.09;5072555;28;20052;-65
2022/06/11 07:18:27;;;;;;;6.55;5.00;;;;;;;19.85;100.00;94553.69;5065559;28;20060;-65
2022/06/11 07:20:58;;;;;;;6.60;5.07;;;;;;;20.09;100.00;94564.00;5073626;28;20044;-64
2022/06/11 07:23:38;;;;;;;6.90;5.35;;;;;;;20.19;100.00;94570.94;5071362;28;20219;-64
2022/06/11 07:26:09;;;;;;;5.55;4.68;;;;;;;20.19;100.00;94569.06;5074467;28;20048;-64
2022/06/11 07:28:48;;;;;;;6.25;4.32;;;;;;;20.39;100.00;94570.50;5071159;28;20040;-64
2022/06/11 07:31:15;;;;;;;5.60;4.53;;;;;;;20.36;100.00;94551.78;5074982;28;20457;-66
2022/06/11 07:33:43;;;;;;;5.85;4.43;;;;;;;20.18;100.00;94572.00;5070935;28;20125;-65
2022/06/11 07:36:12;;;;;;;5.47;4.45;;;;;;;20.10;100.00;94570.09;5070884;28;20040;-63
2022/06/11 07:38:39;;;;;;;5.03;3.95;;;;;;;20.41;100.00;94576.25;5057213;28;20934;-65
2022/06/11 07:41:07;;;;;;;8.77;3.95;;;;;;;20.65;100.00;94580.50;5060889;28;20036;-65
2022/06/11 07:43:34;;;;;;;4.70;3.58;;;;;;;20.95;100.00;94584.28;5058774;28;20059;-65
2022/06/11 07:46:01;;;;;;;5.80;3.30;;;;;;;21.12;100.00;94580.97;5058783;28;20044;-65
2022/06/11 07:48:29;;;;;;;4.95;3.20;;;;;;;21.25;100.00;94575.88;5059239;28;20733;-66
2022/06/11 07:53:35;;;;;;;6.72;3.85;;;;;;;21.35;100.00;94591.53;5103754;27;20139;-64
2022/06/11 07:56:02;;;;;;;4.22;3.33;;;;;;;21.47;100.00;94589.13;5094602;28;20761;-65
2022/06/11 07:58:31;;;;;;;4.22;2.80;;;;;;;21.77;100.00;94594.69;5097503;28;20054;-63
2022/06/11 08:00:59;;;;;;;5.22;2.95;;;;;;;22.06;100.00;94598.66;5093094;28;20453;-63
2022/06/11 08:03:27;;;;;;;5.22;3.65;;;;;;;22.15;100.00;94599.47;5100808;28;20091;-63
2022/06/11 08:05:55;;;;;;;5.93;3.70;;;;;;;22.25;99.96;94590.41;5092969;28;20155;-64
2022/06/11 08:08:24;;;;;;;4.53;3.55;;;;;;;22.32;96.51;94586.22;5099500;28;20058;-65
2022/06/11 08:10:56;;;;;;;4.88;3.25;;;;;;;22.63;98.87;94585.28;5093783;28;20043;-64
2022/06/11 08:13:23;;;;;;;4.00;3.40;;;;;;;22.86;98.87;94593.09;5078974;28;20036;-66
2022/06/11 08:15:53;;;;;;;5.32;3.25;;;;;;;22.92;93.57;94597.16;5093591;28;20043;-66
2022/06/11 08:18:21;;;;;;;4.20;3.30;;;;;;;22.94;94.38;94594.97;5096411;28;20089;-65
2022/06/11 08:20:49;;;;;;;4.93;3.20;;;;;;;23.08;98.33;94586.84;5091579;28;20130;-66
2022/06/11 08:23:18;;;;;;;4.80;3.15;;;;;;;23.35;91.74;94592.88;5095407;28;20032;-67
2022/06/11 08:25:45;;;;;;;4.10;3.17;;;;;;;23.34;90.06;94586.78;5102511;28;20031;-68
2022/06/11 08:28:14;;;;;;;4.93;3.35;;;;;;;23.29;89.83;94578.97;5082818;28;20562;-67
2022/06/11 08:30:42;;;;;;;4.38;3.08;;;;;;;23.16;91.63;94579.97;5094127;28;20039;-67
2022/06/11 08:33:09;;;;;;;7.10;5.18;;;;;;;23.36;92.93;94575.84;5091547;28;20120;-65
2022/06/11 08:35:38;;;;;;;5.35;3.97;;;;;;;23.37;92.38;94575.53;5098405;28;20517;-69
2022/06/11 08:38:05;;;;;;;4.43;3.65;;;;;;;23.42;93.24;94583.31;5093648;28;20584;-66
2022/06/11 08:40:44;;;;;;;4.07;3.42;;;;;;;23.40;93.95;94585.50;5097486;28;20051;-66
2022/06/11 08:43:17;;;;;;;3.58;3.10;;;;;;;23.20;92.13;94581.66;5095874;28;20051;-66
2022/06/11 08:45:57;;;;;;;3.78;3.15;;;;;;;22.75;94.31;94581.25;5084418;28;20056;-66
2022/06/11 08:48:49;;;;;;;4.00;3.60;;;;;;;22.31;96.46;94579.38;5091828;28;20047;-68
2022/06/11 08:51:53;;;;;;;7.47;4.38;;;;;;;22.15;100.00;94578.25;5098777;28;20036;-68
2022/06/11 08:54:25;;;;;;;4.88;3.78;;;;;;;22.02;100.00;94581.78;5092156;28;20047;-68
2022/06/11 08:57:17;;;;;;;4.15;3.55;;;;;;;22.00;98.79;94568.06;5097483;28;20044;-69
2022/06/11 09:00:06;;;;;;;5.03;4.50;;;;;;;22.05;99.92;94575.88;5095147;28;20282;-69
2022/06/11 09:03:18;;;;;;;4.85;3.70;;;;;;;21.94;99.39;94573.50;5104921;27;20126;-68
2022/06/11 09:06:04;;;;;;;4.45;3.72;;;;;;;21.97;100.00;94574.78;5050611;28;20074;-68
2022/06/11 09:08:53;;;;;;;4.85;3.42;;;;;;;22.14;98.49;94568.72;5078653;28;20051;-69
2022/06/11 09:11:39;;;;;;;4.30;3.30;;;;;;;22.06;97.94;94566.84;5067568;28;20062;-68
2022/06/11 09:14:43;;;;;;;6.03;4.03;;;;;;;21.96;99.85;94565.25;5075428;28;20036;-67
2022/06/11 09:17:24;;;;;;;4.25;3.75;;;;;;;22.09;100.00;94564.34;5078068;28;20121;-66
2022/06/11 09:20:09;;;;;;;4.80;3.67;;;;;;;21.96;98.74;94558.06;5077435;28;20048;-67
2022/06/11 09:22:57;;;;;;;5.88;3.50;;;;;;;21.80;96.44;94570.19;5080029;28;20055;-67
2022/06/11 09:25:43;;;;;;;4.40;3.28;;;;;;;21.73;99.11;94575.16;5079998;28;20135;-68
2022/06/11 09:28:51;;;;;;;3.63;2.90;;;;;;;21.68;100.00;94573.47;5080494;28;20032;-68
2022/06/11 09:31:30;;;;;;;8.15;4.20;;;;;;;21.85;100.00;94572.72;5063326;28;20071;-68
2022/06/11 09:34:28;;;;;;;4.55;2.78;;;;;;;21.82;98.75;94577.84;5064213;28;20044;-67
2022/06/11 09:37:01;;;;;;;3.95;3.05;;;;;;;21.49;100.00;94575.56;5063680;28;20043;-67
2022/06/11 09:39:41;;;;;;;6.50;4.78;;;;;;;21.56;100.00;94576.69;5080649;28;20056;-65
2022/06/11 09:43:05;;;;;;;5.55;4.30;;;;;;;21.91;99.33;94571.50;5076962;28;20043;-66
2022/06/11 09:46:25;;;;;;;5.18;3.40;;;;;;;21.88;100.00;94572.09;5040561;28;20048;-65
2022/06/11 09:49:19;;;;;;;4.13;3.33;;;;;;;21.70;100.00;94565.22;5018212;28;20700;-66
2022/06/11 09:52:20;;;;;;;4.43;3.17;;;;;;;21.82;100.00;94570.66;5062066;28;20055;-66
2022/06/11 09:55:06;;;;;;;4.63;3.40;;;;;;;21.83;100.00;94577.56;5028162;28;20090;-66
2022/06/11 09:57:54;;;;;;;3.72;3.08;;;;;;;21.78;100.00;94572.38;5063616;28;20052;-66
2022/06/11 10:00:46;;;;;;;10.85;3.58;;;;;;;21.94;100.00;94576.16;5079984;28;20182;-67
2022/06/11 10:03:42;;;;;;;6.18;3.28;;;;;;;21.52;100.00;94578.38;5075231;28;20063;-66
2022/06/11 10:06:14;;;;;;;9.80;4.85;;;;;;;20.74;100.00;94578.72;5096739;27;20134;-66
2022/06/11 10:08:57;;;;;;;14.05;4.60;;;;;;;19.85;100.00;94564.25;5074442;28;20043;-67
2022/06/11 10:11:35;;;;;;;8.48;4.07;;;;;;;19.32;100.00;94556.78;5078820;28;20063;-67
2022/06/11 10:14:29;;;;;;;7.70;4.13;;;;;;;18.81;100.00;94559.22;5079687;28;20640;-68
2022/06/11 10:16:56;;;;;;;12.18;3.75;;;;;;;18.33;100.00;94564.72;5077105;28;20877;-67
2022/06/11 10:19:30;;;;;;;8.00;4.97;;;;;;;18.06;100.00;94574.03;5075957;28;20048;-68
2022/06/11 10:22:12;;;;;;;5.82;3.70;;;;;;;18.05;100.00;94580.34;5080582;28;20048;-68
2022/06/11 10:24:56;;;;;;;4.57;3.03;;;;;;;18.01;100.00;94568.81;5071001;28;20052;-69
2022/06/11 10:27:32;;;;;;;4.57;2.78;;;;;;;18.10;100.00;94572.38;5076072;28;20044;-67
2022/06/11 10:30:14;;;;;;;6.07;3.30;;;;;;;18.27;100.00;94586.94;5074534;28;21389;-67
2022/06/11 10:32:48;;;;;;;5.25;4.18;;;;;;;18.37;100.00;94592.06;5080939;28;20433;-68
2022/06/11 10:35:29;;;;;;;5.72;4.05;;;;;;;18.55;100.00;94598.41;5077391;28;20048;-69
2022/06/11 10:38:26;;;;;;;4.22;3.25;;;;;;;18.67;100.00;94590.03;5094315;27;20900;-69
2022/06/11 10:40:57;;;;;;;3.92;1.98;;;;;;;18.82;100.00;94586.41;5059373;28;20640;-68
2022/06/11 10:43:59;;;;;;;6.57;3.83;;;;;;;19.05;100.00;94587.34;5075331;28;20048;-68
2022/06/11 10:46:26;;;;;;;4.18;3.15;;;;;;;19.27;100.00;94587.50;5026648;28;20133;-68
2022/06/11 10:48:53;;;;;;;3.45;2.63;;;;;;;19.40;100.00;94587.81;5074572;28;20109;-68
2022/06/11 10:51:31;;;;;;;5.78;3.97;;;;;;;19.59;100.00;94588.50;5076722;28;20044;-76
2022/06/11 10:54:17;;;;;;;4.07;3.33;;;;;;;19.91;100.00;94588.72;5058865;28;20062;-70
2022/06/11 10:56:50;;;;;;;6.95;4.78;;;;;;;20.17;100.00;94589.75;5074445;28;20642;-69
2022/06/11 10:59:29;;;;;;;3.65;2.35;;;;;;;20.44;100.00;94586.25;5079787;28;20776;-69
2022/06/11 11:02:15;;;;;;;8.38;3.05;;;;;;;20.70;100.00;94593.63;5058921;28;20048;-74
2022/06/11 11:04:56;;;;;;;4.03;2.60;;;;;;;21.02;100.00;94583.88;5097292;27;20039;-73
2022/06/11 11:07:24;;;;;;;4.25;2.92;;;;;;;21.33;100.00;94588.41;5095651;27;20126;-75
2022/06/11 11:10:05;;;;;;;2.30;1.55;;;;;;;21.46;100.00;94587.53;5079233;28;20054;-73
2022/06/11 11:12:37;;;;;;;3.42;1.50;;;;;;;21.26;100.00;94577.47;5054702;28;20040;-73
2022/06/11 11:15:13;;;;;;;1.45;1.13;;;;;;;21.25;100.00;94591.78;5078254;28;20066;-74
2022/06/11 11:17:47;;;;;;;2.03;1.30;;;;;;;21.25;100.00;94586.47;5088389;27;20052;-73
2022/06/11 11:20:32;;;;;;;5.57;1.55;;;;;;;21.16;100.00;94591.75;5078776;28;20032;-73
2022/06/11 11:23:17;;;;;;;3.63;0.98;;;;;;;21.03;100.00;94593.41;5059621;28;20046;-67
2022/06/11 11:25:51;;;;;;;1.88;1.27;;;;;;;20.90;100.00;94594.22;5080672;28;20043;-67
2022/06/11 11:28:21;;;;;;;1.95;1.63;;;;;;;20.80;100.00;94601.34;5071838;28;20055;-67
2022/06/11 11:31:00;;;;;;;2.45;1.55;;;;;;;20.76;100.00;94595.09;5077859;28;20048;-67
2022/06/11 11:33:33;;;;;;;2.65;1.67;;;;;;;20.90;100.00;94586.28;5073674;28;20036;-65
2022/06/11 11:36:24;;;;;;;3.08;1.90;;;;;;;20.96;100.00;94587.75;5077058;28;20043;-66
2022/06/11 11:39:16;;;;;;;2.03;1.75;;;;;;;21.01;100.00;94587.59;5073097;28;20763;-66
2022/06/11 11:41:51;;;;;;;2.83;2.33;;;;;;;21.20;100.00;94596.13;5077212;28;20101;-66
2022/06/11 11:44:21;;;;;;;2.78;1.73;;;;;;;21.33;100.00;94596.34;5059845;28;20711;-66
2022/06/11 11:46:52;;;;;;;3.55;2.47;;;;;;;21.31;100.00;94585.28;5077829;28;20520;-66
2022/06/11 11:49:25;;;;;;;2.45;1.83;;;;;;;21.44;100.00;94584.38;5073929;28;20047;-65
2022/06/11 11:52:00;;;;;;;2.50;2.13;;;;;;;21.68;100.00;94584.06;5073787;28;20055;-68
2022/06/11 11:54:28;;;;;;;5.28;2.70;;;;;;;21.84;100.00;94587.06;5056117;28;20518;-68
2022/06/11 11:56:55;;;;;;;2.58;2.03;;;;;;;21.71;100.00;94587.94;5074384;28;20487;-68
2022/06/11 11:59:28;;;;;;;2.78;2.22;;;;;;;21.71;100.00;94587.94;5075150;28;20056;-79
2022/06/11 12:02:04;;;;;;;5.05;3.00;;;;;;;21.61;100.00;94598.81;5071617;28;20040;-78
2022/06/11 12:04:46;;;;;;;8.13;2.10;;;;;;;21.53;100.00;94597.72;5043056;28;20040;-78
2022/06/11 12:07:16;;;;;;;2.45;2.13;;;;;;;21.55;100.00;94601.63;5063243;28;20047;-79
2022/06/11 12:09:56;;;;;;;2.90;2.58;;;;;;;21.23;100.00;94593.94;5087057;28;20050;-78
2022/06/11 12:12:29;;;;;;;3.50;2.30;;;;;;;21.38;100.00;94590.91;5056740;28;20052;-79
2022/06/11 12:14:58;;;;;;;;;;;;;;;21.40;100.00;94586.09;5048223;28;20140;-79
2022/06/11 12:17:44;;;;;;;3.15;2.45;;;;;;;21.42;100.00;94585.78;5045261;28;19920;-79
2022/06/11 12:20:27;;;;;;;4.07;2.67;;;;;;;21.27;100.00;94585.09;5050732;28;20044;-79
2022/06/11 12:23:01;;;;;;;3.90;2.55;;;;;;;21.06;100.00;94574.25;5060478;28;20044;-79